sensor_id;sensor_type;location;lat;lon;timestamp;pressure;altitude;pressure_sealevel;temperature;humidity
76257;BME280;65074;50.436;8.672;2023-02-19T00:01:12;99729.72;;;8.84;100.00
76257;BME280;65074;50.436;8.672;2023-02-19T00:03:38;99717.72;;;8.87;100.00
76257;BME280;65074;50.436;8.672;2023-02-19T00:06:06;99711.19;;;8.83;100.00
76257;BME280;65074;50.436;8.672;2023-02-19T00:08:32;99705.13;;;8.87;100.00
76257;BME280;65074;50.436;8.672;2023-02-19T00:11:05;99705.44;;;8.79;100.00
76257;BME280;65074;50.436;8.672;2023-02-19T00:13:35;99702.75;;;8.79;100.00
76257;BME280;65074;50.436;8.672;2023-02-19T00:16:08;99709.19;;;8.78;100.00
76257;BME280;65074;50.436;8.672;2023-02-19T00:18:34;99702.91;;;8.84;100.00
76257;BME280;65074;50.436;8.672;2023-02-19T00:21:00;99712.59;;;8.85;100.00
76257;BME280;65074;50.436;8.672;2023-02-19T00:23:26;99709.22;;;8.90;100.00
76257;BME280;65074;50.436;8.672;2023-02-19T00:25:52;99706.91;;;8.93;100.00
76257;BME280;65074;50.436;8.672;2023-02-19T00:28:18;99707.81;;;8.99;100.00
76257;BME280;65074;50.436;8.672;2023-02-19T00:30:43;99704.22;;;9.05;100.00
76257;BME280;65074;50.436;8.672;2023-02-19T00:33:08;99694.44;;;9.10;100.00
76257;BME280;65074;50.436;8.672;2023-02-19T00:35:34;99690.81;;;9.16;100.00
76257;BME280;65074;50.436;8.672;2023-02-19T00:38:00;99681.47;;;9.19;100.00
76257;BME280;65074;50.436;8.672;2023-02-19T00:40:25;99680.56;;;9.25;100.00
76257;BME280;65074;50.436;8.672;2023-02-19T00:42:52;99680.06;;;9.16;100.00
76257;BME280;65074;50.436;8.672;2023-02-19T00:45:17;99676.56;;;9.16;100.00
76257;BME280;65074;50.436;8.672;2023-02-19T00:47:43;99680.78;;;9.12;100.00
76257;BME280;65074;50.436;8.672;2023-02-19T00:50:08;99677.53;;;9.10;100.00
76257;BME280;65074;50.436;8.672;2023-02-19T00:52:34;99676.25;;;9.12;100.00
76257;BME280;65074;50.436;8.672;2023-02-19T00:54:59;99674.13;;;9.03;100.00
76257;BME280;65074;50.436;8.672;2023-02-19T00:57:25;99656.88;;;9.10;100.00
76257;BME280;65074;50.436;8.672;2023-02-19T00:59:50;99661.06;;;9.18;100.00
76257;BME280;65074;50.436;8.672;2023-02-19T01:02:15;99651.38;;;9.17;100.00
76257;BME280;65074;50.436;8.672;2023-02-19T01:04:41;99655.00;;;9.23;100.00
76257;BME280;65074;50.436;8.672;2023-02-19T01:07:06;99654.97;;;9.11;100.00
76257;BME280;65074;50.436;8.672;2023-02-19T01:09:31;99659.78;;;9.09;100.00
76257;BME280;65074;50.436;8.672;2023-02-19T01:11:57;99667.94;;;9.14;100.00
76257;BME280;65074;50.436;8.672;2023-02-19T01:14:22;99662.13;;;9.17;100.00
76257;BME280;65074;50.436;8.672;2023-02-19T01:16:47;99655.81;;;9.11;100.00
76257;BME280;65074;50.436;8.672;2023-02-19T01:19:13;99653.13;;;9.11;100.00
76257;BME280;65074;50.436;8.672;2023-02-19T01:21:39;99649.84;;;9.09;100.00
76257;BME280;65074;50.436;8.672;2023-02-19T01:24:05;99647.63;;;9.06;100.00
76257;BME280;65074;50.436;8.672;2023-02-19T01:26:31;99647.50;;;9.01;100.00
76257;BME280;65074;50.436;8.672;2023-02-19T01:29:01;99661.41;;;8.98;100.00
76257;BME280;65074;50.436;8.672;2023-02-19T01:31:27;99637.28;;;8.98;100.00
76257;BME280;65074;50.436;8.672;2023-02-19T01:33:55;99650.44;;;9.00;100.00
76257;BME280;65074;50.436;8.672;2023-02-19T01:36:22;99642.03;;;8.96;100.00
76257;BME280;65074;50.436;8.672;2023-02-19T01:38:48;99639.72;;;9.00;100.00
76257;BME280;65074;50.436;8.672;2023-02-19T01:41:19;99650.69;;;8.98;100.00
76257;BME280;65074;50.436;8.672;2023-02-19T01:44:00;99634.59;;;8.98;100.00
76257;BME280;65074;50.436;8.672;2023-02-19T01:46:28;99635.38;;;8.87;100.00
76257;BME280;65074;50.436;8.672;2023-02-19T01:48:55;99645.78;;;8.95;100.00
76257;BME280;65074;50.436;8.672;2023-02-19T01:51:22;99644.25;;;8.88;100.00
76257;BME280;65074;50.436;8.672;2023-02-19T01:53:52;99633.19;;;8.96;100.00
76257;BME280;65074;50.436;8.672;2023-02-19T01:56:19;99632.69;;;8.99;100.00
76257;BME280;65074;50.436;8.672;2023-02-19T01:58:45;99616.59;;;8.99;100.00
76257;BME280;65074;50.436;8.672;2023-02-19T02:01:11;99623.72;;;9.05;100.00
76257;BME280;65074;50.436;8.672;2023-02-19T02:03:39;99623.97;;;9.03;100.00
76257;BME280;65074;50.436;8.672;2023-02-19T02:06:08;99627.56;;;8.97;100.00
76257;BME280;65074;50.436;8.672;2023-02-19T02:08:36;99619.75;;;9.07;100.00
76257;BME280;65074;50.436;8.672;2023-02-19T02:11:21;99621.03;;;9.05;100.00
76257;BME280;65074;50.436;8.672;2023-02-19T02:13:47;99621.16;;;9.10;100.00
76257;BME280;65074;50.436;8.672;2023-02-19T02:19:14;99620.09;;;9.11;100.00
76257;BME280;65074;50.436;8.672;2023-02-19T02:24:52;99612.16;;;9.16;100.00
76257;BME280;65074;50.436;8.672;2023-02-19T02:27:43;99611.00;;;9.12;100.00
76257;BME280;65074;50.436;8.672;2023-02-19T02:30:32;99615.78;;;9.10;100.00
76257;BME280;65074;50.436;8.672;2023-02-19T02:33:37;99613.56;;;9.18;100.00
76257;BME280;65074;50.436;8.672;2023-02-19T02:36:28;99602.25;;;9.28;100.00
76257;BME280;65074;50.436;8.672;2023-02-19T02:38:56;99609.50;;;9.28;100.00
76257;BME280;65074;50.436;8.672;2023-02-19T02:41:23;99610.19;;;9.23;100.00
76257;BME280;65074;50.436;8.672;2023-02-19T02:43:49;99619.88;;;9.24;100.00
76257;BME280;65074;50.436;8.672;2023-02-19T02:46:22;99593.28;;;9.23;100.00
76257;BME280;65074;50.436;8.672;2023-02-19T02:48:55;99590.00;;;9.09;100.00
76257;BME280;65074;50.436;8.672;2023-02-19T02:51:26;99600.41;;;9.05;100.00
76257;BME280;65074;50.436;8.672;2023-02-19T02:54:24;99594.47;;;9.03;100.00
76257;BME280;65074;50.436;8.672;2023-02-19T02:57:12;99597.03;;;8.98;100.00
76257;BME280;65074;50.436;8.672;2023-02-19T02:59:45;99595.63;;;8.96;100.00
76257;BME280;65074;50.436;8.672;2023-02-19T03:02:16;99598.50;;;8.94;100.00
76257;BME280;65074;50.436;8.672;2023-02-19T03:05:04;99594.44;;;8.92;100.00
76257;BME280;65074;50.436;8.672;2023-02-19T03:07:59;99602.34;;;8.87;100.00
76257;BME280;65074;50.436;8.672;2023-02-19T03:10:31;99597.81;;;8.87;100.00
76257;BME280;65074;50.436;8.672;2023-02-19T03:13:02;99598.06;;;8.86;100.00
76257;BME280;65074;50.436;8.672;2023-02-19T03:15:55;99593.28;;;8.88;100.00
76257;BME280;65074;50.436;8.672;2023-02-19T03:18:42;99583.59;;;8.87;100.00
76257;BME280;65074;50.436;8.672;2023-02-19T03:21:30;99584.28;;;8.82;100.00
76257;BME280;65074;50.436;8.672;2023-02-19T03:23:58;99588.72;;;8.88;100.00
76257;BME280;65074;50.436;8.672;2023-02-19T03:26:44;99581.03;;;8.92;100.00
76257;BME280;65074;50.436;8.672;2023-02-19T03:29:12;99589.66;;;8.94;100.00
76257;BME280;65074;50.436;8.672;2023-02-19T03:31:54;99586.75;;;8.95;100.00
76257;BME280;65074;50.436;8.672;2023-02-19T03:34:24;99581.47;;;8.89;100.00
76257;BME280;65074;50.436;8.672;2023-02-19T03:37:02;99584.41;;;8.87;100.00
76257;BME280;65074;50.436;8.672;2023-02-19T03:39:31;99584.53;;;8.81;100.00
76257;BME280;65074;50.436;8.672;2023-02-19T03:42:02;99583.59;;;8.87;100.00
76257;BME280;65074;50.436;8.672;2023-02-19T03:47:15;99575.19;;;8.72;100.00
76257;BME280;65074;50.436;8.672;2023-02-19T03:49:45;99574.47;;;8.65;100.00
76257;BME280;65074;50.436;8.672;2023-02-19T03:52:37;99570.88;;;8.59;100.00
76257;BME280;65074;50.436;8.672;2023-02-19T03:55:25;99583.22;;;8.72;100.00
76257;BME280;65074;50.436;8.672;2023-02-19T03:57:53;99588.25;;;8.80;100.00
76257;BME280;65074;50.436;8.672;2023-02-19T04:00:26;99592.56;;;8.81;100.00
76257;BME280;65074;50.436;8.672;2023-02-19T04:02:59;99591.63;;;8.87;100.00
76257;BME280;65074;50.436;8.672;2023-02-19T04:05:32;99592.44;;;8.87;100.00
76257;BME280;65074;50.436;8.672;2023-02-19T04:08:05;99590.84;;;8.98;100.00
76257;BME280;65074;50.436;8.672;2023-02-19T04:10:39;99587.06;;;8.99;100.00
76257;BME280;65074;50.436;8.672;2023-02-19T04:13:12;99597.13;;;8.92;100.00
76257;BME280;65074;50.436;8.672;2023-02-19T04:15:40;99599.69;;;8.98;100.00
76257;BME280;65074;50.436;8.672;2023-02-19T04:18:13;99596.19;;;9.09;100.00
76257;BME280;65074;50.436;8.672;2023-02-19T04:20:42;99602.97;;;9.12;100.00
76257;BME280;65074;50.436;8.672;2023-02-19T04:23:08;99602.50;;;9.15;100.00
76257;BME280;65074;50.436;8.672;2023-02-19T04:25:36;99600.28;;;9.12;100.00
76257;BME280;65074;50.436;8.672;2023-02-19T04:28:02;99597.69;;;9.17;100.00
76257;BME280;65074;50.436;8.672;2023-02-19T04:30:28;99587.69;;;9.12;100.00
76257;BME280;65074;50.436;8.672;2023-02-19T04:32:53;99600.41;;;9.05;100.00
76257;BME280;65074;50.436;8.672;2023-02-19T04:35:18;99609.50;;;8.93;100.00
76257;BME280;65074;50.436;8.672;2023-02-19T04:37:44;99608.44;;;8.94;100.00
76257;BME280;65074;50.436;8.672;2023-02-19T04:40:09;99614.63;;;9.06;100.00
76257;BME280;65074;50.436;8.672;2023-02-19T04:42:35;99616.97;;;9.02;100.00
76257;BME280;65074;50.436;8.672;2023-02-19T04:45:00;99621.25;;;8.92;100.00
76257;BME280;65074;50.436;8.672;2023-02-19T04:47:25;99612.19;;;8.93;100.00
76257;BME280;65074;50.436;8.672;2023-02-19T04:49:51;99615.91;;;8.80;100.00
76257;BME280;65074;50.436;8.672;2023-02-19T04:52:16;99626.88;;;8.79;100.00
76257;BME280;65074;50.436;8.672;2023-02-19T04:54:41;99624.19;;;8.79;100.00
76257;BME280;65074;50.436;8.672;2023-02-19T04:57:07;99630.13;;;8.81;100.00
76257;BME280;65074;50.436;8.672;2023-02-19T04:59:33;99628.28;;;8.81;100.00
76257;BME280;65074;50.436;8.672;2023-02-19T05:01:58;99637.59;;;8.79;100.00
76257;BME280;65074;50.436;8.672;2023-02-19T05:04:23;99633.03;;;8.79;100.00
76257;BME280;65074;50.436;8.672;2023-02-19T05:06:49;99637.94;;;8.82;100.00
76257;BME280;65074;50.436;8.672;2023-02-19T05:09:14;99646.81;;;8.83;100.00
76257;BME280;65074;50.436;8.672;2023-02-19T05:11:40;99657.66;;;8.88;100.00
76257;BME280;65074;50.436;8.672;2023-02-19T05:14:05;99653.13;;;8.88;100.00
76257;BME280;65074;50.436;8.672;2023-02-19T05:16:30;99655.56;;;8.90;100.00
76257;BME280;65074;50.436;8.672;2023-02-19T05:18:57;99662.56;;;8.91;100.00
76257;BME280;65074;50.436;8.672;2023-02-19T05:21:22;99661.97;;;8.89;100.00
76257;BME280;65074;50.436;8.672;2023-02-19T05:23:48;99678.78;;;8.96;100.00
76257;BME280;65074;50.436;8.672;2023-02-19T05:26:18;99659.88;;;8.91;100.00
76257;BME280;65074;50.436;8.672;2023-02-19T05:28:46;99667.31;;;8.89;100.00
76257;BME280;65074;50.436;8.672;2023-02-19T05:31:13;99669.44;;;8.87;100.00
76257;BME280;65074;50.436;8.672;2023-02-19T05:33:39;99672.22;;;8.80;100.00
76257;BME280;65074;50.436;8.672;2023-02-19T05:36:08;99680.50;;;8.79;100.00
76257;BME280;65074;50.436;8.672;2023-02-19T05:38:35;99676.31;;;8.83;100.00
76257;BME280;65074;50.436;8.672;2023-02-19T05:43:37;99677.13;;;8.83;100.00
76257;BME280;65074;50.436;8.672;2023-02-19T05:46:06;99678.28;;;8.76;100.00
76257;BME280;65074;50.436;8.672;2023-02-19T05:48:31;99677.91;;;8.72;100.00
76257;BME280;65074;50.436;8.672;2023-02-19T05:51:05;99679.63;;;8.67;100.00
76257;BME280;65074;50.436;8.672;2023-02-19T05:53:31;99692.84;;;8.68;100.00
76257;BME280;65074;50.436;8.672;2023-02-19T05:55:57;99698.91;;;8.64;100.00
76257;BME280;65074;50.436;8.672;2023-02-19T05:58:22;99692.56;;;8.58;100.00
76257;BME280;65074;50.436;8.672;2023-02-19T06:00:48;99692.56;;;8.58;100.00
76257;BME280;65074;50.436;8.672;2023-02-19T06:03:13;99694.53;;;8.51;100.00
76257;BME280;65074;50.436;8.672;2023-02-19T06:05:39;99691.53;;;8.59;100.00
76257;BME280;65074;50.436;8.672;2023-02-19T06:08:04;99693.59;;;8.57;100.00
76257;BME280;65074;50.436;8.672;2023-02-19T06:10:29;99682.53;;;8.54;100.00
76257;BME280;65074;50.436;8.672;2023-02-19T06:12:55;99708.16;;;8.49;100.00
76257;BME280;65074;50.436;8.672;2023-02-19T06:15:20;99716.19;;;8.49;100.00
76257;BME280;65074;50.436;8.672;2023-02-19T06:17:47;99705.47;;;8.49;100.00
76257;BME280;65074;50.436;8.672;2023-02-19T06:20:12;99704.88;;;8.47;100.00
76257;BME280;65074;50.436;8.672;2023-02-19T06:22:38;99721.78;;;8.48;100.00
76257;BME280;65074;50.436;8.672;2023-02-19T06:25:03;99726.91;;;8.49;100.00
76257;BME280;65074;50.436;8.672;2023-02-19T06:27:29;99728.44;;;8.45;100.00
76257;BME280;65074;50.436;8.672;2023-02-19T06:29:55;99732.75;;;8.46;100.00
76257;BME280;65074;50.436;8.672;2023-02-19T06:32:20;99738.03;;;8.53;100.00
76257;BME280;65074;50.436;8.672;2023-02-19T06:34:45;99729.16;;;8.52;100.00
76257;BME280;65074;50.436;8.672;2023-02-19T06:37:11;99723.09;;;8.57;100.00
76257;BME280;65074;50.436;8.672;2023-02-19T06:39:36;99734.06;;;8.56;100.00
76257;BME280;65074;50.436;8.672;2023-02-19T06:42:02;99741.88;;;8.57;100.00
76257;BME280;65074;50.436;8.672;2023-02-19T06:44:27;99733.97;;;8.62;100.00
76257;BME280;65074;50.436;8.672;2023-02-19T06:46:55;99739.44;;;8.56;100.00
76257;BME280;65074;50.436;8.672;2023-02-19T06:49:21;99747.72;;;8.54;100.00
76257;BME280;65074;50.436;8.672;2023-02-19T06:51:47;99752.78;;;8.44;100.00
76257;BME280;65074;50.436;8.672;2023-02-19T06:54:12;99756.50;;;8.43;100.00
76257;BME280;65074;50.436;8.672;2023-02-19T06:56:39;99747.19;;;8.45;100.00
76257;BME280;65074;50.436;8.672;2023-02-19T06:59:08;99761.63;;;8.44;100.00
76257;BME280;65074;50.436;8.672;2023-02-19T07:01:34;99782.38;;;8.67;100.00
76257;BME280;65074;50.436;8.672;2023-02-19T07:04:01;99772.84;;;8.71;100.00
76257;BME280;65074;50.436;8.672;2023-02-19T07:06:27;99768.53;;;8.70;100.00
76257;BME280;65074;50.436;8.672;2023-02-19T07:08:53;99775.97;;;8.68;100.00
76257;BME280;65074;50.436;8.672;2023-02-19T07:11:19;99782.63;;;8.66;100.00
76257;BME280;65074;50.436;8.672;2023-02-19T07:13:44;99786.03;;;8.73;100.00
76257;BME280;65074;50.436;8.672;2023-02-19T07:16:10;99797.34;;;8.75;100.00
76257;BME280;65074;50.436;8.672;2023-02-19T07:18:37;99770.81;;;8.67;100.00
76257;BME280;65074;50.436;8.672;2023-02-19T07:21:08;99789.47;;;8.62;100.00
76257;BME280;65074;50.436;8.672;2023-02-19T07:23:33;99800.50;;;8.54;100.00
76257;BME280;65074;50.436;8.672;2023-02-19T07:25:59;99799.38;;;8.61;100.00
76257;BME280;65074;50.436;8.672;2023-02-19T07:28:25;99806.03;;;8.59;100.00
76257;BME280;65074;50.436;8.672;2023-02-19T07:30:50;99815.69;;;8.60;100.00
76257;BME280;65074;50.436;8.672;2023-02-19T07:33:16;99817.47;;;8.66;100.00
76257;BME280;65074;50.436;8.672;2023-02-19T07:35:48;99821.47;;;8.75;100.00
76257;BME280;65074;50.436;8.672;2023-02-19T07:38:19;99826.63;;;8.76;100.00
76257;BME280;65074;50.436;8.672;2023-02-19T07:43:17;99831.63;;;8.73;100.00
76257;BME280;65074;50.436;8.672;2023-02-19T07:45:43;99849.41;;;8.85;100.00
76257;BME280;65074;50.436;8.672;2023-02-19T07:48:08;99845.50;;;8.99;100.00
76257;BME280;65074;50.436;8.672;2023-02-19T07:50:33;99851.09;;;8.98;100.00
76257;BME280;65074;50.436;8.672;2023-02-19T07:52:59;99862.53;;;8.93;100.00
76257;BME280;65074;50.436;8.672;2023-02-19T07:55:24;99860.72;;;8.87;100.00
76257;BME280;65074;50.436;8.672;2023-02-19T07:57:50;99862.00;;;8.85;100.00
76257;BME280;65074;50.436;8.672;2023-02-19T08:00:15;99862.09;;;8.78;100.00
76257;BME280;65074;50.436;8.672;2023-02-19T08:02:41;99862.78;;;8.74;100.00
76257;BME280;65074;50.436;8.672;2023-02-19T08:05:29;99861.03;;;8.79;100.00
76257;BME280;65074;50.436;8.672;2023-02-19T08:07:56;99880.44;;;8.81;100.00
76257;BME280;65074;50.436;8.672;2023-02-19T08:10:22;99874.38;;;8.86;100.00
76257;BME280;65074;50.436;8.672;2023-02-19T08:13:10;99891.75;;;8.83;100.00
76257;BME280;65074;50.436;8.672;2023-02-19T08:15:48;99892.09;;;8.87;100.00
76257;BME280;65074;50.436;8.672;2023-02-19T08:18:15;99895.38;;;8.89;100.00
76257;BME280;65074;50.436;8.672;2023-02-19T08:20:41;99901.78;;;8.88;100.00
76257;BME280;65074;50.436;8.672;2023-02-19T08:23:07;99895.06;;;8.97;100.00
76257;BME280;65074;50.436;8.672;2023-02-19T08:25:33;99904.38;;;8.94;100.00
76257;BME280;65074;50.436;8.672;2023-02-19T08:27:59;99905.13;;;9.01;100.00
76257;BME280;65074;50.436;8.672;2023-02-19T08:30:26;99895.31;;;8.95;100.00
76257;BME280;65074;50.436;8.672;2023-02-19T08:32:52;99910.56;;;8.95;100.00
76257;BME280;65074;50.436;8.672;2023-02-19T08:35:17;99914.44;;;8.99;100.00
76257;BME280;65074;50.436;8.672;2023-02-19T08:37:43;99916.31;;;8.98;100.00
76257;BME280;65074;50.436;8.672;2023-02-19T08:40:09;99919.59;;;9.00;100.00
76257;BME280;65074;50.436;8.672;2023-02-19T08:42:34;99927.78;;;9.05;99.63
76257;BME280;65074;50.436;8.672;2023-02-19T08:44:59;99931.22;;;9.12;100.00
76257;BME280;65074;50.436;8.672;2023-02-19T08:47:25;99929.25;;;9.20;100.00
76257;BME280;65074;50.436;8.672;2023-02-19T08:49:50;99931.94;;;9.20;99.60
76257;BME280;65074;50.436;8.672;2023-02-19T08:52:15;99937.53;;;9.18;98.58
76257;BME280;65074;50.436;8.672;2023-02-19T08:54:41;99941.13;;;9.12;99.86
76257;BME280;65074;50.436;8.672;2023-02-19T08:57:06;99939.25;;;9.12;98.99
76257;BME280;65074;50.436;8.672;2023-02-19T08:59:31;99948.50;;;9.16;99.46
76257;BME280;65074;50.436;8.672;2023-02-19T09:01:57;99955.13;;;9.14;99.34
76257;BME280;65074;50.436;8.672;2023-02-19T09:04:23;99951.50;;;9.08;99.43
76257;BME280;65074;50.436;8.672;2023-02-19T09:06:48;99966.09;;;9.12;99.68
76257;BME280;65074;50.436;8.672;2023-02-19T09:09:13;99966.38;;;9.23;99.04
76257;BME280;65074;50.436;8.672;2023-02-19T09:11:39;99976.34;;;9.34;98.30
76257;BME280;65074;50.436;8.672;2023-02-19T09:14:04;99972.03;;;9.33;98.35
76257;BME280;65074;50.436;8.672;2023-02-19T09:16:32;99976.34;;;9.34;98.19
76257;BME280;65074;50.436;8.672;2023-02-19T09:18:58;99980.84;;;9.22;99.67
76257;BME280;65074;50.436;8.672;2023-02-19T09:21:23;99960.88;;;9.18;100.00
76257;BME280;65074;50.436;8.672;2023-02-19T09:23:48;99970.09;;;9.22;99.94
76257;BME280;65074;50.436;8.672;2023-02-19T09:26:14;99971.03;;;9.15;100.00
76257;BME280;65074;50.436;8.672;2023-02-19T09:28:39;99969.81;;;9.30;99.84
76257;BME280;65074;50.436;8.672;2023-02-19T09:31:13;99963.25;;;9.26;100.00
76257;BME280;65074;50.436;8.672;2023-02-19T09:33:46;99961.75;;;9.30;99.28
76257;BME280;65074;50.436;8.672;2023-02-19T09:36:12;99964.81;;;9.33;100.00
76257;BME280;65074;50.436;8.672;2023-02-19T09:38:38;99963.03;;;9.27;100.00
76257;BME280;65074;50.436;8.672;2023-02-19T09:43:51;99958.91;;;9.43;99.40
76257;BME280;65074;50.436;8.672;2023-02-19T09:46:30;99965.97;;;9.55;98.70
76257;BME280;65074;50.436;8.672;2023-02-19T09:49:04;99967.94;;;9.60;99.24
76257;BME280;65074;50.436;8.672;2023-02-19T09:51:33;99972.13;;;9.56;98.26
76257;BME280;65074;50.436;8.672;2023-02-19T09:54:00;99974.00;;;9.55;98.12
76257;BME280;65074;50.436;8.672;2023-02-19T09:56:26;99987.69;;;9.65;97.44
76257;BME280;65074;50.436;8.672;2023-02-19T09:58:54;99991.59;;;9.81;97.03
76257;BME280;65074;50.436;8.672;2023-02-19T10:01:23;100003.50;;;9.73;97.56
76257;BME280;65074;50.436;8.672;2023-02-19T10:03:50;99995.66;;;9.72;97.59
76257;BME280;65074;50.436;8.672;2023-02-19T10:06:23;100010.81;;;9.66;97.69
76257;BME280;65074;50.436;8.672;2023-02-19T10:08:52;100001.50;;;9.69;97.67
76257;BME280;65074;50.436;8.672;2023-02-19T10:11:19;100003.91;;;9.89;96.97
76257;BME280;65074;50.436;8.672;2023-02-19T10:16:15;100008.88;;;9.73;96.74
76257;BME280;65074;50.436;8.672;2023-02-19T10:18:43;100023.28;;;9.61;97.24
76257;BME280;65074;50.436;8.672;2023-02-19T10:21:21;100022.53;;;9.72;96.25
76257;BME280;65074;50.436;8.672;2023-02-19T10:23:54;100023.44;;;9.66;97.17
76257;BME280;65074;50.436;8.672;2023-02-19T10:26:22;100037.84;;;9.71;97.52
76257;BME280;65074;50.436;8.672;2023-02-19T10:28:50;100028.22;;;9.64;95.52
76257;BME280;65074;50.436;8.672;2023-02-19T10:31:18;100042.25;;;9.66;96.11
76257;BME280;65074;50.436;8.672;2023-02-19T10:33:55;100050.53;;;9.64;96.75
76257;BME280;65074;50.436;8.672;2023-02-19T10:38:49;100049.53;;;9.77;95.99
76257;BME280;65074;50.436;8.672;2023-02-19T10:41:17;100066.88;;;9.93;96.40
76257;BME280;65074;50.436;8.672;2023-02-19T10:44:13;100068.78;;;9.92;95.73
76257;BME280;65074;50.436;8.672;2023-02-19T10:46:41;100082.31;;;9.67;95.95
76257;BME280;65074;50.436;8.672;2023-02-19T10:49:27;100064.25;;;9.74;96.78
76257;BME280;65074;50.436;8.672;2023-02-19T10:51:55;100069.09;;;9.66;97.14
76257;BME280;65074;50.436;8.672;2023-02-19T10:54:28;100082.97;;;9.81;96.92
76257;BME280;65074;50.436;8.672;2023-02-19T10:59:48;100094.50;;;9.70;97.06
76257;BME280;65074;50.436;8.672;2023-02-19T11:02:18;100099.63;;;9.53;98.12
76257;BME280;65074;50.436;8.672;2023-02-19T11:07:38;100101.44;;;9.59;99.46
76257;BME280;65074;50.436;8.672;2023-02-19T11:10:25;100096.94;;;9.71;98.59
76257;BME280;65074;50.436;8.672;2023-02-19T11:12:54;100107.66;;;9.90;97.08
76257;BME280;65074;50.436;8.672;2023-02-19T11:15:36;100115.00;;;9.82;97.94
76257;BME280;65074;50.436;8.672;2023-02-19T11:18:07;100113.03;;;9.90;98.03
76257;BME280;65074;50.436;8.672;2023-02-19T11:20:52;100127.69;;;10.05;97.65
76257;BME280;65074;50.436;8.672;2023-02-19T11:23:27;100109.75;;;10.47;96.67
76257;BME280;65074;50.436;8.672;2023-02-19T11:25:54;100104.94;;;10.37;95.46
76257;BME280;65074;50.436;8.672;2023-02-19T11:28:40;100102.25;;;10.37;93.96
76257;BME280;65074;50.436;8.672;2023-02-19T11:33:53;100115.78;;;10.19;95.38
76257;BME280;65074;50.436;8.672;2023-02-19T11:36:31;100109.78;;;10.59;93.64
76257;BME280;65074;50.436;8.672;2023-02-19T11:39:02;100100.22;;;11.21;91.63
76257;BME280;65074;50.436;8.672;2023-02-19T11:44:48;100099.94;;;11.68;89.92
76257;BME280;65074;50.436;8.672;2023-02-19T11:52:31;100099.63;;;10.61;89.50
76257;BME280;65074;50.436;8.672;2023-02-19T11:55:19;100101.03;;;10.75;88.55
76257;BME280;65074;50.436;8.672;2023-02-19T12:00:52;100109.31;;;12.06;80.76
76257;BME280;65074;50.436;8.672;2023-02-19T12:06:30;100109.84;;;11.28;87.54
76257;BME280;65074;50.436;8.672;2023-02-19T12:09:32;100134.00;;;10.59;87.71
76257;BME280;65074;50.436;8.672;2023-02-19T12:12:15;100107.03;;;10.35;90.73
76257;BME280;65074;50.436;8.672;2023-02-19T12:15:18;100118.13;;;10.27;92.57
76257;BME280;65074;50.436;8.672;2023-02-19T12:26:18;100118.88;;;10.46;92.72
76257;BME280;65074;50.436;8.672;2023-02-19T12:29:04;100118.00;;;10.87;93.83
76257;BME280;65074;50.436;8.672;2023-02-19T12:31:49;100101.66;;;10.88;94.10
76257;BME280;65074;50.436;8.672;2023-02-19T12:39:46;100103.72;;;10.75;94.89
76257;BME280;65074;50.436;8.672;2023-02-19T12:42:39;100113.25;;;10.48;95.94
76257;BME280;65074;50.436;8.672;2023-02-19T12:45:18;100100.53;;;10.55;95.93
76257;BME280;65074;50.436;8.672;2023-02-19T12:47:55;100112.31;;;10.42;95.01
76257;BME280;65074;50.436;8.672;2023-02-19T12:50:24;100107.56;;;10.14;96.65
76257;BME280;65074;50.436;8.672;2023-02-19T12:53:27;100107.78;;;10.13;96.82
76257;BME280;65074;50.436;8.672;2023-02-19T12:55:56;100091.97;;;11.62;89.48
76257;BME280;65074;50.436;8.672;2023-02-19T12:58:43;100098.69;;;12.16;87.37
76257;BME280;65074;50.436;8.672;2023-02-19T13:01:14;100096.69;;;11.32;89.35
76257;BME280;65074;50.436;8.672;2023-02-19T13:06:41;100107.44;;;12.51;84.45
76257;BME280;65074;50.436;8.672;2023-02-19T13:09:19;100121.28;;;11.98;83.31
76257;BME280;65074;50.436;8.672;2023-02-19T13:11:52;100127.47;;;12.72;80.48
76257;BME280;65074;50.436;8.672;2023-02-19T13:14:29;100118.00;;;13.57;76.01
76257;BME280;65074;50.436;8.672;2023-02-19T13:17:02;100127.22;;;14.05;74.23
76257;BME280;65074;50.436;8.672;2023-02-19T13:19:30;100117.88;;;14.66;70.85
76257;BME280;65074;50.436;8.672;2023-02-19T13:22:06;100128.72;;;12.97;81.34
76257;BME280;65074;50.436;8.672;2023-02-19T13:24:58;100130.19;;;11.13;89.65
76257;BME280;65074;50.436;8.672;2023-02-19T13:30:22;100135.91;;;10.81;92.30
76257;BME280;65074;50.436;8.672;2023-02-19T13:33:02;100137.53;;;11.52;89.39
76257;BME280;65074;50.436;8.672;2023-02-19T13:38:04;100153.44;;;10.84;92.09
76257;BME280;65074;50.436;8.672;2023-02-19T13:40:38;100150.59;;;10.56;91.50
76257;BME280;65074;50.436;8.672;2023-02-19T13:43:06;100145.16;;;11.08;90.09
76257;BME280;65074;50.436;8.672;2023-02-19T13:45:43;100152.59;;;12.27;85.59
76257;BME280;65074;50.436;8.672;2023-02-19T13:48:14;100147.53;;;12.03;85.78
76257;BME280;65074;50.436;8.672;2023-02-19T13:50:40;100151.91;;;13.10;78.43
76257;BME280;65074;50.436;8.672;2023-02-19T14:09:49;100168.00;;;13.05;77.69
76257;BME280;65074;50.436;8.672;2023-02-19T14:14:49;100157.34;;;11.34;86.34
76257;BME280;65074;50.436;8.672;2023-02-19T14:28:02;100175.28;;;11.75;83.84
76257;BME280;65074;50.436;8.672;2023-02-19T14:30:30;100169.00;;;11.98;82.55
76257;BME280;65074;50.436;8.672;2023-02-19T14:32:56;100169.78;;;11.70;82.80
76257;BME280;65074;50.436;8.672;2023-02-19T14:35:26;100168.72;;;11.71;83.51
76257;BME280;65074;50.436;8.672;2023-02-19T14:37:54;100169.28;;;11.85;82.81
76257;BME280;65074;50.436;8.672;2023-02-19T14:40:32;100167.47;;;12.02;81.67
76257;BME280;65074;50.436;8.672;2023-02-19T14:43:01;100171.88;;;11.45;82.85
76257;BME280;65074;50.436;8.672;2023-02-19T14:45:29;100167.31;;;11.10;85.43
76257;BME280;65074;50.436;8.672;2023-02-19T14:48:00;100168.41;;;10.68;86.71
76257;BME280;65074;50.436;8.672;2023-02-19T14:50:29;100171.41;;;10.49;88.40
76257;BME280;65074;50.436;8.672;2023-02-19T14:52:58;100170.91;;;10.40;89.38